Terminal Aerodrome Forecast
Issued by NWS

Home | Current Version | Previous Version | Text Only | Print | Product List | Glossary On
Versions: 1 2 3 4 5 6 7 8 9 10 11 12 13 14 15 16 17 18 19 20 21 22 23 24 25 26 27 28 29 30 31 32 33 34 35 36 37 38 39 40
000
FTUS42 KRAH 262226 AAC
TAFINT
TAF AMD
KINT 262226Z 2622/2718 18004KT P6SM SCT030 BKN040
      TEMPO 2622/2624 1SM TSRA BKN025CB
     FM270000 18003KT P6SM SCT035 OVC050
     FM270600 22003KT 3SM -SHRA OVC015
     FM270900 23003KT 2SM -SHRA BR OVC007
     FM271600 VRB03KT P6SM VCSH OVC015=

USA.gov is the U.S. government's official web portal to all federal, state and local government web resources and services.